createdAt,value
2018-11-01T00:00:29.668Z,15.04
2018-11-01T00:03:05.812Z,14.87
2018-11-01T00:05:41.457Z,14.88
2018-11-01T00:08:16.873Z,14.91
2018-11-01T00:11:05.549Z,15.03
2018-11-01T00:13:40.896Z,14.98
2018-11-01T00:16:16.497Z,14.99
2018-11-01T00:18:52.381Z,14.83
2018-11-01T00:21:27.926Z,14.97
2018-11-01T00:24:03.393Z,14.96
2018-11-01T00:26:38.819Z,14.87
2018-11-01T00:29:14.549Z,14.81
2018-11-01T00:31:50.029Z,14.73
2018-11-01T00:34:25.800Z,14.74
2018-11-01T00:37:01.784Z,14.79
2018-11-01T00:39:37.445Z,14.82
2018-11-01T00:42:13.015Z,14.82
2018-11-01T00:44:48.645Z,14.81
2018-11-01T00:47:24.557Z,14.86
2018-11-01T00:50:00.568Z,14.92
2018-11-01T00:52:36.193Z,14.92
2018-11-01T00:55:12.971Z,14.81
2018-11-01T00:57:55.330Z,14.82
2018-11-01T01:00:42.055Z,14.86
2018-11-01T01:03:17.627Z,14.83
2018-11-01T01:05:53.130Z,14.84
2018-11-01T01:08:43.483Z,14.84
2018-11-01T01:11:19.116Z,14.86
2018-11-01T01:13:55.129Z,14.90
2018-11-01T01:16:30.613Z,14.88
2018-11-01T01:19:07.143Z,14.91
2018-11-01T01:21:43.661Z,15.04
2018-11-01T01:24:19.314Z,15.19
2018-11-01T01:26:54.864Z,15.28
2018-11-01T01:29:30.662Z,15.29
2018-11-01T01:32:06.441Z,15.44
2018-11-01T01:34:41.977Z,15.44
2018-11-01T01:37:18.093Z,15.48
2018-11-01T01:39:55.413Z,15.40
2018-11-01T01:42:36.042Z,15.13
2018-11-01T01:47:53.895Z,14.83
2018-11-01T01:50:33.036Z,14.88
2018-11-01T01:53:09.192Z,14.81
2018-11-01T01:55:44.580Z,14.89
2018-11-01T01:58:19.985Z,14.70
2018-11-01T02:00:55.636Z,14.73
2018-11-01T02:03:31.284Z,14.70
2018-11-01T02:06:07.040Z,14.65
2018-11-01T02:08:42.615Z,14.62
2018-11-01T02:11:18.156Z,14.56
2018-11-01T02:13:53.590Z,14.47
2018-11-01T02:16:29.192Z,14.54
2018-11-01T02:19:05.365Z,14.49
2018-11-01T02:21:40.762Z,14.41
2018-11-01T02:24:16.463Z,14.34
2018-11-01T02:26:52.074Z,14.26
2018-11-01T02:29:28.678Z,14.27
2018-11-01T02:32:04.208Z,14.22
2018-11-01T02:34:39.848Z,14.11
2018-11-01T02:37:15.465Z,14.12
2018-11-01T02:39:50.962Z,14.14
2018-11-01T02:42:26.536Z,14.14
2018-11-01T02:45:03.185Z,14.19
2018-11-01T02:47:39.157Z,14.20
2018-11-01T02:50:24.845Z,14.14
2018-11-01T02:53:00.597Z,14.28
2018-11-01T02:55:35.989Z,14.41
2018-11-01T02:58:11.487Z,14.38
2018-11-01T03:00:47.176Z,14.38
2018-11-01T03:03:22.659Z,14.36
2018-11-01T03:05:58.202Z,14.29
2018-11-01T03:08:34.034Z,14.24
2018-11-01T03:11:09.544Z,14.22
2018-11-01T03:13:45.176Z,14.33
2018-11-01T03:16:20.829Z,14.35
2018-11-01T03:18:56.512Z,14.28
2018-11-01T03:21:32.010Z,14.32
2018-11-01T03:24:07.937Z,14.34
2018-11-01T03:26:43.531Z,14.37
2018-11-01T03:29:19.262Z,14.21
2018-11-01T03:31:54.651Z,14.26
2018-11-01T03:34:30.217Z,14.26
2018-11-01T03:37:06.192Z,14.06
2018-11-01T03:39:41.714Z,14.00
2018-11-01T03:42:17.309Z,13.95
2018-11-01T03:44:52.935Z,13.92
2018-11-01T03:47:28.669Z,13.99
2018-11-01T03:50:04.276Z,13.97
2018-11-01T03:52:40.448Z,13.99
2018-11-01T03:55:33.829Z,14.03
2018-11-01T03:58:09.394Z,13.94
2018-11-01T04:00:45.145Z,13.96
2018-11-01T04:03:20.683Z,13.96
2018-11-01T04:05:56.806Z,13.92
2018-11-01T04:08:32.253Z,13.89
2018-11-01T04:11:07.964Z,14.04
2018-11-01T04:13:43.548Z,14.06
2018-11-01T04:16:32.489Z,13.94
2018-11-01T04:19:07.833Z,13.88
2018-11-01T04:21:43.339Z,13.88
2018-11-01T04:24:18.849Z,13.80
2018-11-01T04:26:54.294Z,13.77
2018-11-01T04:29:30.701Z,13.71
2018-11-01T04:32:06.708Z,13.66
2018-11-01T04:34:42.172Z,13.68
2018-11-01T04:37:17.701Z,13.52
2018-11-01T04:39:53.181Z,13.50
2018-11-01T04:42:28.723Z,13.53
2018-11-01T04:45:04.399Z,12.31
2018-11-01T04:47:40.553Z,13.51
2018-11-01T04:50:27.770Z,13.60
2018-11-01T04:53:08.368Z,13.76
2018-11-01T04:55:44.086Z,13.78
2018-11-01T04:58:19.973Z,13.91
2018-11-01T05:00:55.452Z,13.74
2018-11-01T05:03:31.104Z,13.49
2018-11-01T05:06:07.970Z,13.47
2018-11-01T05:08:43.588Z,13.50
2018-11-01T05:11:19.847Z,13.55
2018-11-01T05:13:55.362Z,13.44
2018-11-01T05:16:31.178Z,13.27
2018-11-01T05:19:07.277Z,13.34
2018-11-01T05:21:42.722Z,13.39
2018-11-01T05:24:18.278Z,13.29
2018-11-01T05:26:53.763Z,13.32
2018-11-01T05:29:29.347Z,13.31
2018-11-01T05:32:05.702Z,13.42
2018-11-01T05:34:41.333Z,13.37
2018-11-01T05:37:16.824Z,13.38
2018-11-01T05:39:52.381Z,13.36
2018-11-01T05:42:28.965Z,13.27
2018-11-01T05:45:05.376Z,13.29
2018-11-01T05:47:40.837Z,13.15
2018-11-01T05:50:16.353Z,13.02
2018-11-01T05:52:56.077Z,13.08
2018-11-01T05:55:34.279Z,13.06
2018-11-01T05:58:09.923Z,13.02
2018-11-01T06:00:45.712Z,13.01
2018-11-01T06:03:21.169Z,13.08
2018-11-01T06:05:57.778Z,12.96
2018-11-01T06:08:35.437Z,13.00
2018-11-01T06:11:11.011Z,13.08
2018-11-01T06:13:49.159Z,13.03
2018-11-01T06:16:24.797Z,13.12
2018-11-01T06:19:00.364Z,13.35
2018-11-01T06:21:35.903Z,13.29
2018-11-01T06:24:11.333Z,13.34
2018-11-01T06:26:46.832Z,13.33
2018-11-01T06:29:22.587Z,12.80
2018-11-01T06:31:58.341Z,13.15
2018-11-01T06:34:36.842Z,13.30
2018-11-01T06:37:12.449Z,13.53
2018-11-01T06:39:48.126Z,13.43
2018-11-01T06:42:24.374Z,13.54
2018-11-01T06:44:59.967Z,13.59
2018-11-01T06:47:36.037Z,13.79
2018-11-01T06:50:11.551Z,13.18
2018-11-01T06:52:52.522Z,13.94
2018-11-01T06:55:34.422Z,13.78
2018-11-01T06:58:10.358Z,13.92
2018-11-01T07:00:46.078Z,14.25
2018-11-01T07:03:21.544Z,14.41
2018-11-01T07:05:57.340Z,14.40
2018-11-01T07:08:32.776Z,14.30
2018-11-01T07:11:08.191Z,14.16
2018-11-01T07:13:44.909Z,14.31
2018-11-01T07:16:20.633Z,14.32
2018-11-01T07:18:56.645Z,14.44
2018-11-01T07:21:32.325Z,14.61
2018-11-01T07:24:08.024Z,14.74
2018-11-01T07:26:43.628Z,14.86
2018-11-01T07:29:19.095Z,14.86
2018-11-01T07:31:54.847Z,14.79
2018-11-01T07:34:30.476Z,14.89
2018-11-01T07:37:07.081Z,14.88
2018-11-01T07:39:42.798Z,14.53
2018-11-01T07:42:18.993Z,14.64
2018-11-01T07:44:54.629Z,15.00
2018-11-01T07:47:30.511Z,15.19
2018-11-01T07:50:07.325Z,15.46
2018-11-01T07:52:44.733Z,15.39
2018-11-01T07:55:34.444Z,15.37
2018-11-01T07:58:16.762Z,15.51
2018-11-01T08:00:52.362Z,15.57
2018-11-01T08:03:28.043Z,15.53
2018-11-01T08:06:04.508Z,15.95
2018-11-01T08:08:40.100Z,16.50
2018-11-01T08:11:15.876Z,16.10
2018-11-01T08:13:51.484Z,15.56
2018-11-01T08:16:27.145Z,15.05
2018-11-01T08:19:03.106Z,14.76
2018-11-01T08:21:42.119Z,14.60
2018-11-01T08:24:17.668Z,14.65
2018-11-01T08:26:53.280Z,14.50
2018-11-01T08:29:28.800Z,14.74
2018-11-01T08:32:04.413Z,14.94
2018-11-01T08:34:39.940Z,15.01
2018-11-01T08:37:15.592Z,15.07
2018-11-01T08:39:51.801Z,15.11
2018-11-01T08:42:27.394Z,15.47
2018-11-01T08:45:03.230Z,15.44
2018-11-01T08:47:38.734Z,15.61
2018-11-01T08:50:15.142Z,15.85
2018-11-01T08:52:50.690Z,16.11
2018-11-01T08:55:34.659Z,16.62
2018-11-01T08:58:10.114Z,16.81
2018-11-01T09:00:45.621Z,15.67
2018-11-01T09:03:21.537Z,17.23
2018-11-01T09:05:56.939Z,17.47
2018-11-01T09:08:32.352Z,17.43
2018-11-01T09:11:07.865Z,17.25
2018-11-01T09:13:43.502Z,17.41
2018-11-01T09:16:19.004Z,17.17
2018-11-01T09:18:55.026Z,17.43
2018-11-01T09:21:30.618Z,17.87
2018-11-01T09:24:07.484Z,18.25
2018-11-01T09:26:43.171Z,18.50
2018-11-01T09:29:18.855Z,17.94
2018-11-01T09:31:54.450Z,18.06
2018-11-01T09:34:29.921Z,18.09
2018-11-01T09:37:06.001Z,18.12
2018-11-01T09:39:41.629Z,18.06
2018-11-01T09:42:17.284Z,18.25
2018-11-01T09:44:52.941Z,18.66
2018-11-01T09:47:29.103Z,19.00
2018-11-01T09:50:05.403Z,18.90
2018-11-01T09:52:40.987Z,19.09
2018-11-01T09:55:34.743Z,19.31
2018-11-01T09:58:10.755Z,18.91
2018-11-01T10:00:50.347Z,19.26
2018-11-01T10:03:25.841Z,19.30
2018-11-01T10:06:01.438Z,19.21
2018-11-01T10:08:37.241Z,19.22
2018-11-01T10:11:12.776Z,19.15
2018-11-01T10:13:48.126Z,19.37
2018-11-01T10:16:23.683Z,19.52
2018-11-01T10:19:00.711Z,19.45
2018-11-01T10:21:39.352Z,19.32
2018-11-01T10:24:16.166Z,19.31
2018-11-01T10:26:51.768Z,19.43
2018-11-01T10:29:27.531Z,19.68
2018-11-01T10:32:04.945Z,19.50
2018-11-01T10:34:40.762Z,19.37
2018-11-01T10:37:16.321Z,19.54
2018-11-01T10:39:52.741Z,19.42
2018-11-01T10:42:28.794Z,19.53
2018-11-01T10:45:04.415Z,19.31
2018-11-01T10:47:40.248Z,19.28
2018-11-01T10:50:17.682Z,19.32
2018-11-01T10:52:53.436Z,19.32
2018-11-01T10:55:36.158Z,19.24
2018-11-01T10:58:12.510Z,19.14
2018-11-01T11:00:53.319Z,19.19
2018-11-01T11:03:29.008Z,19.10
2018-11-01T11:06:04.961Z,19.12
2018-11-01T11:08:40.379Z,19.31
2018-11-01T11:11:16.118Z,19.18
2018-11-01T11:13:52.017Z,19.03
2018-11-01T11:16:27.517Z,18.97
2018-11-01T11:19:03.146Z,18.91
2018-11-01T11:21:39.583Z,18.87
2018-11-01T11:24:15.824Z,18.85
2018-11-01T11:26:51.373Z,18.88
2018-11-01T11:29:27.109Z,18.87
2018-11-01T11:32:02.817Z,18.79
2018-11-01T11:34:38.458Z,18.83
2018-11-01T11:37:13.974Z,18.81
2018-11-01T11:39:49.650Z,18.62
2018-11-01T11:42:25.434Z,18.72
2018-11-01T11:45:01.104Z,18.84
2018-11-01T11:47:36.679Z,19.09
2018-11-01T11:50:13.563Z,19.08
2018-11-01T11:52:57.741Z,19.15
2018-11-01T11:55:41.608Z,19.07
2018-11-01T11:58:17.293Z,19.19
2018-11-01T12:00:54.017Z,19.18
2018-11-01T12:03:29.871Z,19.71
2018-11-01T12:06:06.031Z,19.94
2018-11-01T12:08:42.000Z,19.83
2018-11-01T12:11:17.574Z,19.53
2018-11-01T12:13:53.484Z,19.39
2018-11-01T12:16:29.087Z,19.31
2018-11-01T12:19:04.944Z,19.33
2018-11-01T12:21:40.851Z,19.17
2018-11-01T12:24:16.547Z,19.24
2018-11-01T12:26:52.308Z,19.05
2018-11-01T12:29:27.782Z,19.12
2018-11-01T12:32:03.496Z,19.21
2018-11-01T12:34:38.873Z,19.26
2018-11-01T12:37:14.710Z,19.19
2018-11-01T12:39:50.164Z,19.09
2018-11-01T12:42:31.822Z,19.16
2018-11-01T12:45:08.994Z,18.98
2018-11-01T12:47:50.713Z,19.27
2018-11-01T12:50:28.298Z,18.49
2018-11-01T12:53:04.217Z,19.21
2018-11-01T12:55:39.765Z,19.06
2018-11-01T12:58:15.172Z,19.17
2018-11-01T13:00:50.772Z,19.34
2018-11-01T13:03:26.382Z,19.03
2018-11-01T13:06:02.037Z,19.27
2018-11-01T13:08:40.510Z,19.26
2018-11-01T13:11:16.281Z,19.45
2018-11-01T13:13:53.068Z,19.71
2018-11-01T13:16:28.695Z,19.62
2018-11-01T13:19:05.181Z,19.64
2018-11-01T13:21:41.541Z,19.61
2018-11-01T13:24:17.365Z,19.93
2018-11-01T13:26:53.256Z,20.14
2018-11-01T13:29:28.738Z,20.32
2018-11-01T13:32:04.338Z,20.19
2018-11-01T13:34:40.312Z,19.75
2018-11-01T13:37:17.123Z,19.75
2018-11-01T13:39:52.720Z,19.82
2018-11-01T13:42:28.206Z,19.68
2018-11-01T13:45:04.874Z,19.35
2018-11-01T13:47:40.507Z,19.46
2018-11-01T13:50:33.805Z,19.47
2018-11-01T13:53:09.497Z,19.45
2018-11-01T13:55:50.653Z,19.49
2018-11-01T13:58:26.255Z,19.49
2018-11-01T14:01:02.099Z,19.42
2018-11-01T14:03:37.594Z,19.15
2018-11-01T14:06:25.592Z,19.12
2018-11-01T14:09:01.246Z,19.18
2018-11-01T14:11:37.055Z,19.15
2018-11-01T14:14:12.790Z,19.08
2018-11-01T14:16:48.274Z,19.21
2018-11-01T14:19:23.884Z,19.31
2018-11-01T14:21:59.516Z,19.22
2018-11-01T14:24:35.361Z,18.78
2018-11-01T14:27:11.314Z,18.99
2018-11-01T14:29:47.126Z,18.82
2018-11-01T14:32:22.625Z,18.97
2018-11-01T14:34:58.376Z,19.09
2018-11-01T14:37:34.308Z,18.99
2018-11-01T14:43:03.152Z,18.79
2018-11-01T14:45:42.966Z,18.84
2018-11-01T14:48:18.688Z,18.81
2018-11-01T14:50:54.273Z,18.67
2018-11-01T14:53:31.130Z,18.67
2018-11-01T14:56:08.502Z,18.65
2018-11-01T14:58:44.153Z,18.48
2018-11-01T15:01:19.144Z,18.46
2018-11-01T15:03:55.080Z,18.38
2018-11-01T15:06:31.924Z,18.32
2018-11-01T15:09:10.623Z,18.21
2018-11-01T15:11:46.151Z,18.28
2018-11-01T15:14:21.969Z,17.77
2018-11-01T15:16:57.667Z,17.92
2018-11-01T15:19:33.147Z,17.89
2018-11-01T15:22:08.884Z,17.89
2018-11-01T15:24:44.717Z,17.80
2018-11-01T15:27:20.432Z,17.72
2018-11-01T15:29:55.931Z,17.85
2018-11-01T15:32:31.669Z,17.68
2018-11-01T15:35:08.731Z,17.79
2018-11-01T15:37:44.885Z,17.82
2018-11-01T15:40:35.200Z,17.89
2018-11-01T15:43:10.837Z,17.80
2018-11-01T15:45:46.656Z,17.75
2018-11-01T15:48:22.146Z,17.56
2018-11-01T15:50:58.109Z,17.82
2018-11-01T15:53:34.173Z,17.78
2018-11-01T15:56:10.128Z,17.84
2018-11-01T15:58:49.156Z,17.86
2018-11-01T16:01:24.953Z,17.81
2018-11-01T16:04:01.032Z,17.11
2018-11-01T16:06:36.887Z,17.77
2018-11-01T16:09:13.583Z,17.68
2018-11-01T16:11:48.997Z,17.86
2018-11-01T16:14:24.517Z,17.64
2018-11-01T16:17:00.018Z,17.66
2018-11-01T16:19:35.476Z,17.69
2018-11-01T16:22:12.183Z,17.65
2018-11-01T16:24:47.754Z,17.50
2018-11-01T16:27:23.324Z,17.38
2018-11-01T16:30:03.616Z,17.31
2018-11-01T16:32:39.711Z,17.46
2018-11-01T16:38:13.701Z,17.44
2018-11-01T16:43:39.197Z,17.39
2018-11-01T16:46:14.982Z,17.35
2018-11-01T16:48:51.092Z,17.27
2018-11-01T16:51:28.317Z,17.16
2018-11-01T16:54:04.060Z,17.27
2018-11-01T16:56:39.457Z,17.04
2018-11-01T16:59:15.265Z,16.85
2018-11-01T17:01:51.805Z,14.29
2018-11-01T17:04:27.590Z,16.90
2018-11-01T17:07:03.087Z,16.80
2018-11-01T17:09:38.736Z,16.63
2018-11-01T17:12:14.504Z,16.62
2018-11-01T17:14:50.240Z,16.58
2018-11-01T17:17:25.904Z,16.44
2018-11-01T17:20:01.460Z,16.50
2018-11-01T17:22:37.278Z,16.59
2018-11-01T17:25:12.967Z,16.53
2018-11-01T17:27:54.882Z,16.47
2018-11-01T17:30:35.204Z,16.53
2018-11-01T17:33:11.008Z,16.52
2018-11-01T17:35:46.505Z,16.55
2018-11-01T17:38:22.274Z,16.66
2018-11-01T17:40:57.955Z,16.58
2018-11-01T17:43:33.603Z,16.63
2018-11-01T17:46:09.584Z,16.59
2018-11-01T17:48:45.829Z,16.61
2018-11-01T17:51:22.785Z,16.65
2018-11-01T17:53:58.599Z,16.56
2018-11-01T17:56:34.620Z,16.50
2018-11-01T17:59:10.721Z,16.48
2018-11-01T18:01:46.998Z,16.26
2018-11-01T18:04:22.884Z,16.57
2018-11-01T18:06:58.860Z,16.56
2018-11-01T18:09:34.616Z,16.62
2018-11-01T18:12:10.942Z,16.60
2018-11-01T18:14:47.412Z,16.61
2018-11-01T18:17:23.178Z,16.59
2018-11-01T18:19:58.780Z,16.59
2018-11-01T18:22:34.359Z,16.58
2018-11-01T18:25:11.966Z,16.58
2018-11-01T18:27:53.180Z,16.61
2018-11-01T18:30:34.681Z,16.47
2018-11-01T18:33:10.267Z,16.43
2018-11-01T18:35:46.006Z,16.54
2018-11-01T18:38:21.675Z,16.59
2018-11-01T18:40:57.913Z,16.61
2018-11-01T18:43:33.464Z,16.55
2018-11-01T18:46:09.473Z,16.48
2018-11-01T18:48:45.053Z,16.50
2018-11-01T18:51:21.153Z,16.55
2018-11-01T18:53:56.637Z,16.58
2018-11-01T18:56:34.390Z,16.47
2018-11-01T18:59:10.721Z,16.49
2018-11-01T19:01:46.358Z,16.45
2018-11-01T19:04:22.082Z,16.50
2018-11-01T19:06:58.825Z,16.32
2018-11-01T19:09:34.529Z,16.35
2018-11-01T19:12:10.222Z,16.30
2018-11-01T19:14:45.987Z,16.32
2018-11-01T19:17:21.749Z,15.17
2018-11-01T19:19:57.810Z,16.16
2018-11-01T19:22:33.709Z,16.21
2018-11-01T19:25:09.955Z,16.16
2018-11-01T19:27:50.106Z,16.19
2018-11-01T19:30:28.509Z,16.26
2018-11-01T19:33:04.326Z,16.26
2018-11-01T19:35:57.405Z,16.29
2018-11-01T19:38:32.896Z,16.45
2018-11-01T19:41:08.679Z,16.55
2018-11-01T19:43:44.225Z,16.65
2018-11-01T19:46:19.695Z,16.32
2018-11-01T19:48:55.272Z,16.32
2018-11-01T19:51:30.931Z,16.26
2018-11-01T19:54:06.704Z,16.20
2018-11-01T19:56:42.225Z,16.05
2018-11-01T19:59:18.672Z,16.29
2018-11-01T20:01:54.257Z,16.31
2018-11-01T20:04:29.910Z,16.14
2018-11-01T20:07:05.722Z,16.20
2018-11-01T20:09:41.232Z,16.24
2018-11-01T20:12:17.056Z,16.11
2018-11-01T20:14:52.520Z,15.96
2018-11-01T20:17:28.323Z,16.01
2018-11-01T20:20:04.843Z,16.08
2018-11-01T20:22:42.040Z,16.04
2018-11-01T20:25:31.951Z,16.07
2018-11-01T20:28:07.915Z,16.09
2018-11-01T20:30:43.561Z,16.08
2018-11-01T20:33:19.166Z,16.03
2018-11-01T20:35:55.192Z,15.96
2018-11-01T20:38:31.597Z,15.77
2018-11-01T20:41:07.283Z,15.88
2018-11-01T20:43:42.954Z,15.98
2018-11-01T20:46:19.710Z,16.02
2018-11-01T20:48:55.656Z,15.98
2018-11-01T20:51:31.512Z,16.16
2018-11-01T20:54:07.324Z,16.12
2018-11-01T20:56:42.960Z,16.18
2018-11-01T20:59:18.881Z,16.09
2018-11-01T21:01:54.455Z,16.11
2018-11-01T21:04:30.068Z,16.18
2018-11-01T21:07:06.384Z,16.10
2018-11-01T21:09:42.634Z,16.02
2018-11-01T21:12:18.388Z,15.93
2018-11-01T21:14:53.800Z,15.94
2018-11-01T21:17:29.667Z,15.88
2018-11-01T21:20:06.594Z,15.86
2018-11-01T21:22:42.406Z,15.87
2018-11-01T21:25:33.106Z,15.79
2018-11-01T21:28:08.571Z,15.82
2018-11-01T21:30:44.087Z,14.99
2018-11-01T21:33:24.813Z,15.84
2018-11-01T21:36:00.467Z,15.81
2018-11-01T21:38:35.969Z,15.77
2018-11-01T21:41:11.729Z,15.61
2018-11-01T21:43:47.383Z,15.61
2018-11-01T21:46:23.054Z,15.51
2018-11-01T21:48:58.996Z,15.61
2018-11-01T21:51:34.523Z,15.68
2018-11-01T21:54:10.258Z,15.59
2018-11-01T21:56:45.818Z,15.69
2018-11-01T21:59:21.313Z,15.67
2018-11-01T22:01:57.117Z,15.64
2018-11-01T22:04:33.102Z,15.41
2018-11-01T22:07:09.332Z,15.44
2018-11-01T22:09:44.917Z,15.39
2018-11-01T22:12:20.609Z,15.44
2018-11-01T22:14:56.322Z,15.64
2018-11-01T22:17:31.937Z,15.64
2018-11-01T22:20:09.180Z,15.46
2018-11-01T22:22:50.683Z,15.39
2018-11-01T22:25:30.415Z,15.44
2018-11-01T22:28:06.722Z,15.44
2018-11-01T22:30:42.988Z,15.51
2018-11-01T22:33:18.468Z,15.59
2018-11-01T22:35:54.177Z,15.58
2018-11-01T22:38:31.115Z,15.71
2018-11-01T22:41:07.083Z,15.87
2018-11-01T22:43:42.689Z,16.07
2018-11-01T22:46:18.656Z,16.29
2018-11-01T22:48:54.187Z,16.16
2018-11-01T22:51:30.033Z,17.16
2018-11-01T22:54:05.998Z,16.52
2018-11-01T22:56:41.734Z,16.43
2018-11-01T22:59:17.500Z,16.70
2018-11-01T23:01:53.207Z,17.49
2018-11-01T23:04:29.241Z,17.43
2018-11-01T23:07:05.256Z,17.70
2018-11-01T23:09:41.448Z,17.55
2018-11-01T23:12:17.357Z,17.64
2018-11-01T23:14:52.994Z,17.57
2018-11-01T23:17:29.081Z,17.23
2018-11-01T23:20:05.044Z,16.87
2018-11-01T23:22:41.110Z,16.71
2018-11-01T23:25:33.412Z,16.52
2018-11-01T23:28:09.232Z,16.38
2018-11-01T23:30:44.721Z,16.49
2018-11-01T23:33:20.560Z,16.49
2018-11-01T23:36:00.101Z,16.36
2018-11-01T23:38:40.921Z,16.24
2018-11-01T23:41:21.882Z,16.10
2018-11-01T23:44:03.471Z,16.16
2018-11-01T23:46:44.461Z,15.96
2018-11-01T23:49:23.422Z,16.23
2018-11-01T23:51:58.899Z,16.34
2018-11-01T23:54:34.706Z,16.32
2018-11-01T23:57:10.417Z,16.24
2018-11-01T23:59:46.949Z,16.21
